Airfield :







YOU CAN JOIN US ON...

 
LOGIN :

Register | Disclaimer

   EN    FR    IT 

 









Legend :    VFR   Marginal VFR   IFR   Intensive IFR   Very Intensive IFR
Visi :
Ceiling :
>= 8 km
>= 3000ft
5 to 8 km
1000 to 3000 ft
1500m to 5 km
500 to 1000 ft
800 to 1500m
200 to 500 ft
< 800m
< 200 ft
Symbols :   Thunderstorms  Fog  Heavy snow  Heavy precipitations  Wind > 20 kt






- Airport Elevation : 84 ft
- IATA code : YJT


CYJT - Stephenville

CURRENT METAR :
  • 190200Z 28008KT 250V310 8SM -RA SCT011 BKN022 OVC040 16/15 A2999 RMK SF3SC3SC2 PRESRR SLP158 DENSITY ALT 200FT

EXPIRED METARs :
  • 190150Z 31005KT 10SM -RA SCT011 BKN020 OVC033 17/15 A2998 RMK SF3SC3SC2 SLP154 DENSITY ALT 300FT
  • 190100Z 27012KT 12SM SCT004 BKN016 OVC025 16/16 A2997 RMK SF3SF3SC2 SLP152 DENSITY ALT 200FT
  • 190000Z 27014KT 15SM SCT010 OVC022 17/16 A2997 RMK SF4SC4 SLP151 DENSITY ALT 300FT
  • 182350Z 27013KT 15SM SCT009 OVC022 17/17 A2997 RMK SF3SC5 SLP152 DENSITY ALT 300FT
  • 182316Z 25020G27KT 8SM -RA SCT010 OVC024 18/18 A2995 RMK SF3SC5 SLP143 DENSITY ALT 500FT

TAF TAF CYJT
Valid from the 19 at 00:00 until the 20 at 00:00 UTC


182344Z 1900/1924 24012G22KT P6SM SCT006 OVC025
TEMPO 1900/1901 4SM -RA -DZ BR BKN006 OVC025
PROB30 1900/1901 3/4SM -DZ -RA BR OVC002
FM190100 25012KT 3SM -RA -DZ BR OVC004
TEMPO 1901/1903 P6SM NSW OVC010
PROB30 1901/1903 3/4SM -DZ -RA BR OVC002
FM190300 27005KT P6SM BKN004 OVC050
FM190600 36005KT P6SM FEW008 BKN080 OVC200
FM191000 05008KT P6SM OVC160
FM191700 05010KT P6SM BKN240
FM192000 02015KT P6SM SKC RMK NXT FCST BY 190600Z
CZQX FIR / North America



MET'MAP, your aeronautical weather chart ! - Copyright ORBIFLY December 2007 - Disclaimer

ORBIFLY MET'MAP TEAM :

Programming & Development : Alexandra Zaïnal
Concept & original design : Baudouin d'Aumeries
Assistance for programming : Marc-Olivier Méhu
Technical & hardware support : Manuel Goepfert

Contact : metmap@orbifly.com




SOURCES & CREDITS :

   NOAA